High River, Canada
Current Conditions -  °F | °C
As of 2:00 AM on Wednesday 22 Oct 2014 (Local Time) from CYYC Reporting Station
Clear Clear  
Wind Chill: 50°   Ceiling: Unl
Heat Index: 50°   Visibility: 15mi
Dew Point: 27°   Wind: 8mph
Humidity: 40%   Direction: 270°W
Pressure: 29.77"   Gusts: NA
Location:  50.58°N, 113.87°W
Report Text: CYYC 220800Z 27007KT 15SM SKC 10/M03 A2977 RMK SLP090 DENSITY ALT 4000FT
Loading
Personal Weather Stations






























Interactive Weather Map
Tropical Storm Tracking
New forecast layout! Learn more

10-Day Weather Forecast

Advertisements
Track Severe Weather on mobile